Ever Unicorn — 9V7963 — position and weather

sailwx.info

Track history (hours):
 
Tides and Currents Weather Stations Pressure Air Temp Water Temp Dewpoint Dewpoint Depression Visibility Wind Speed Wind Dir Waves Ship Positions

Ever Unicorn

Last reported at 2018-May-22 17:15 UTC. Time now 2018-May-23 01:17 UTC.
Position N 25°10' E 121°23'.

Length 285 m; draft 10.3 m.

Type: Cargo ship. MMSI: 564995000.

Date/timePositionNaut miles runAvg speedWind from/ knotsBaromVisibWave heightAir tempDewpointWater temp
2018-May-22 17:15N 25°10' E 121°23'  
2018-May-20 09:18N 30°33' E 122°18'311.1
2018-May-20 08:59N 30°33' E 122°14'713.8
2018-May-20 08:30N 30°35' E 122°07'2 2.0
2018-May-20 07:40N 30°36' E 122°05'0 0.0
2018-May-20 07:25N 30°36' E 122°05'0 0.0
2018-May-20 06:52N 30°36' E 122°05'0 0.0
2018-May-20 02:16N 30°36' E 122°05'0 0.0
2018-May-20 01:37N 30°36' E 122°05'0 0.3
2018-May-20 01:25N 30°36' E 122°05'0 0.0
2018-May-20 00:55N 30°36' E 122°05'0 0.0
2018-May-20 00:01N 30°36' E 122°05'0 0.0
2018-May-20 00:00N 30°36' E 122°05'0 0.8
2018-May-19 23:29N 30°36' E 122°05'6 9.3
2018-May-19 22:53N 30°34' E 122°11'410.4
2018-May-19 22:30N 30°34' E 122°15'335 8.8
2018-May-18 08:14N 35°58' E 120°35'415.7
2018-May-18 08:00N 35°59' E 120°30'814.8
2018-May-18 07:28N 36°01' E 120°21'510.5
2018-May-18 07:00N 36°02' E 120°15'2 4.0
2018-May-18 06:27N 36°01' E 120°13'0 0.0
2018-May-18 05:54N 36°01' E 120°13'0 0.0
2018-May-18 05:21N 36°01' E 120°13'0 0.0
2018-May-18 05:00N 36°01' E 120°13'0 0.0
2018-May-18 03:39N 36°01' E 120°13'0 0.0
2018-May-18 03:25N 36°01' E 120°13'0 0.0
2018-May-18 02:51N 36°01' E 120°13'0 0.0
2018-May-18 02:22N 36°01' E 120°13'0 0.0
2018-May-18 01:48N 36°01' E 120°13'0 0.0
2018-May-18 01:30N 36°01' E 120°13'0 0.0
2018-May-18 00:57N 36°01' E 120°13'0 0.0
2018-May-18 00:21N 36°01' E 120°13'0 0.0
2018-May-17 23:48N 36°01' E 120°13'0 0.0
2018-May-17 23:30N 36°01' E 120°13'0 0.0
2018-May-17 23:00N 36°01' E 120°13'0 0.0
2018-May-17 22:24N 36°01' E 120°13'0 0.0
2018-May-17 21:48N 36°01' E 120°13'0 0.0
2018-May-17 21:30N 36°01' E 120°13'0 0.0
2018-May-17 20:54N 36°01' E 120°13'0 0.0
2018-May-17 20:30N 36°01' E 120°13'0 0.0
2018-May-17 19:42N 36°01' E 120°13'0 0.0
2018-May-17 18:45N 36°01' E 120°13'0 0.0
2018-May-17 18:15N 36°01' E 120°13'0 0.0
2018-May-17 18:00N 36°01' E 120°13'0 0.0
2018-May-17 16:19N 36°01' E 120°13'4 7.2
2018-May-17 15:48N 36°02' E 120°17'711.2
2018-May-17 15:07N 36°01' E 120°26'0 0.0
2018-May-17 15:00N 36°01' E 120°26'  
2018-May-13 23:48N 33°33' E 134°38'516.5
2018-May-13 23:30N 33°37' E 134°42'916.9
2018-May-13 23:00N 33°44' E 134°48'816.9
2018-May-13 22:31N 33°51' E 134°53'816.7
2018-May-13 22:00N 33°59' E 134°54'816.8
2018-May-13 21:30N 34°07' E 134°56'713.2
2018-May-13 21:01N 34°14' E 134°57'714.5
2018-May-13 20:30N 34°21' E 134°60'816.3
2018-May-13 20:00N 34°28' E 135°05'714.8
2018-May-13 19:30N 34°32' E 135°12'815.4
2018-May-13 19:00N 34°36' E 135°20'5 9.2
2018-May-13 18:30N 34°39' E 135°24'0 0.5
2018-May-13 17:59N 34°39' E 135°24'0 0.0
2018-May-13 17:29N 34°39' E 135°24'0 0.0
2018-May-13 16:59N 34°39' E 135°24'0 0.0
2018-May-13 16:29N 34°39' E 135°24'0 0.0
2018-May-13 15:59N 34°39' E 135°24'0 0.0
2018-May-13 15:29N 34°39' E 135°24'0 0.0
2018-May-13 14:59N 34°39' E 135°24'0 0.0
2018-May-13 14:29N 34°39' E 135°24'0 0.0
2018-May-13 13:59N 34°39' E 135°24'0 0.0
2018-May-13 13:29N 34°39' E 135°24'0 0.0
2018-May-13 12:59N 34°39' E 135°24'0 0.6
2018-May-13 12:30N 34°39' E 135°24'3 6.2
2018-May-13 12:00N 34°37' E 135°21'611.3
2018-May-13 11:30N 34°33' E 135°16'815.2
2018-May-13 11:00N 34°27' E 135°10'816.7
2018-May-13 10:30N 34°21' E 135°03'815.7
2018-May-13 10:01N 34°14' E 134°59'611.6
2018-May-13 09:30N 34°08' E 134°59'3 6.1
2018-May-13 09:00N 34°05' E 134°60'917.6
2018-May-13 08:30N 33°56' E 135°00'918.8
2018-May-13 08:00N 33°47' E 135°03'1019.4
2018-May-13 07:30N 33°40' E 135°11'1019.8
2018-May-13 06:59N 33°32' E 135°18'13018.7
2018-May-13 00:01N 34°02' E 137°51'121.9
2018-May-12 23:58N 34°02' E 137°52'1020.7
2018-May-12 23:27N 34°08' E 138°03'919.8
2018-May-12 22:59N 34°12' E 138°13'1017.8
2018-May-12 22:27N 34°17' E 138°23'917.9
2018-May-12 21:58N 34°20' E 138°33'917.8
2018-May-12 21:28N 34°24' E 138°42'917.5
2018-May-12 20:58N 34°28' E 138°52'816.2
2018-May-12 20:30N 34°30' E 139°01'816.2
2018-May-12 20:00N 34°33' E 139°10'815.4
2018-May-12 19:30N 34°36' E 139°19'814.5
2018-May-12 18:58N 34°38' E 139°28'715.0
2018-May-12 18:30N 34°44' E 139°32'817.0
2018-May-12 18:00N 34°52' E 139°36'816.2
2018-May-12 17:31N 34°59' E 139°39'  
Track history (hours):
 
Tides and Currents Weather Stations Pressure Air Temp Water Temp Dewpoint Dewpoint Depression Visibility Wind Speed Wind Dir Waves Ship Positions

Ever Unicorn

Last reported at 2018-May-22 17:15 UTC. Time now 2018-May-23 01:17 UTC.
Position N 25°10' E 121°23'.

Length 285 m; draft 10.3 m.

Type: Cargo ship. MMSI: 564995000.

Date/timePositionNaut miles runAvg speedWind from/ knotsBaromVisibWave heightAir tempDewpointWater temp
2018-May-22 17:15N 25°10' E 121°23'  
2018-May-20 09:18N 30°33' E 122°18'311.1
2018-May-20 08:59N 30°33' E 122°14'713.8
2018-May-20 08:30N 30°35' E 122°07'2 2.0
2018-May-20 07:40N 30°36' E 122°05'0 0.0
2018-May-20 07:25N 30°36' E 122°05'0 0.0
2018-May-20 06:52N 30°36' E 122°05'0 0.0
2018-May-20 02:16N 30°36' E 122°05'0 0.0
2018-May-20 01:37N 30°36' E 122°05'0 0.3
2018-May-20 01:25N 30°36' E 122°05'0 0.0
2018-May-20 00:55N 30°36' E 122°05'0 0.0
2018-May-20 00:01N 30°36' E 122°05'0 0.0
2018-May-20 00:00N 30°36' E 122°05'0 0.8
2018-May-19 23:29N 30°36' E 122°05'6 9.3
2018-May-19 22:53N 30°34' E 122°11'410.4
2018-May-19 22:30N 30°34' E 122°15'335 8.8
2018-May-18 08:14N 35°58' E 120°35'415.7
2018-May-18 08:00N 35°59' E 120°30'814.8
2018-May-18 07:28N 36°01' E 120°21'510.5
2018-May-18 07:00N 36°02' E 120°15'2 4.0
2018-May-18 06:27N 36°01' E 120°13'0 0.0
2018-May-18 05:54N 36°01' E 120°13'0 0.0
2018-May-18 05:21N 36°01' E 120°13'0 0.0
2018-May-18 05:00N 36°01' E 120°13'0 0.0
2018-May-18 03:39N 36°01' E 120°13'0 0.0
2018-May-18 03:25N 36°01' E 120°13'0 0.0
2018-May-18 02:51N 36°01' E 120°13'0 0.0
2018-May-18 02:22N 36°01' E 120°13'0 0.0
2018-May-18 01:48N 36°01' E 120°13'0 0.0
2018-May-18 01:30N 36°01' E 120°13'0 0.0
2018-May-18 00:57N 36°01' E 120°13'0 0.0
2018-May-18 00:21N 36°01' E 120°13'0 0.0
2018-May-17 23:48N 36°01' E 120°13'0 0.0
2018-May-17 23:30N 36°01' E 120°13'0 0.0
2018-May-17 23:00N 36°01' E 120°13'0 0.0
2018-May-17 22:24N 36°01' E 120°13'0 0.0
2018-May-17 21:48N 36°01' E 120°13'0 0.0
2018-May-17 21:30N 36°01' E 120°13'0 0.0
2018-May-17 20:54N 36°01' E 120°13'0 0.0
2018-May-17 20:30N 36°01' E 120°13'0 0.0
2018-May-17 19:42N 36°01' E 120°13'0 0.0
2018-May-17 18:45N 36°01' E 120°13'0 0.0
2018-May-17 18:15N 36°01' E 120°13'0 0.0
2018-May-17 18:00N 36°01' E 120°13'0 0.0
2018-May-17 16:19N 36°01' E 120°13'4 7.2
2018-May-17 15:48N 36°02' E 120°17'711.2
2018-May-17 15:07N 36°01' E 120°26'0 0.0
2018-May-17 15:00N 36°01' E 120°26'  
2018-May-13 23:48N 33°33' E 134°38'516.5
2018-May-13 23:30N 33°37' E 134°42'916.9
2018-May-13 23:00N 33°44' E 134°48'816.9
2018-May-13 22:31N 33°51' E 134°53'816.7
2018-May-13 22:00N 33°59' E 134°54'816.8
2018-May-13 21:30N 34°07' E 134°56'713.2
2018-May-13 21:01N 34°14' E 134°57'714.5
2018-May-13 20:30N 34°21' E 134°60'816.3
2018-May-13 20:00N 34°28' E 135°05'714.8
2018-May-13 19:30N 34°32' E 135°12'815.4
2018-May-13 19:00N 34°36' E 135°20'5 9.2
2018-May-13 18:30N 34°39' E 135°24'0 0.5
2018-May-13 17:59N 34°39' E 135°24'0 0.0
2018-May-13 17:29N 34°39' E 135°24'0 0.0
2018-May-13 16:59N 34°39' E 135°24'0 0.0
2018-May-13 16:29N 34°39' E 135°24'0 0.0
2018-May-13 15:59N 34°39' E 135°24'0 0.0
2018-May-13 15:29N 34°39' E 135°24'0 0.0
2018-May-13 14:59N 34°39' E 135°24'0 0.0
2018-May-13 14:29N 34°39' E 135°24'0 0.0
2018-May-13 13:59N 34°39' E 135°24'0 0.0
2018-May-13 13:29N 34°39' E 135°24'0 0.0
2018-May-13 12:59N 34°39' E 135°24'0 0.6
2018-May-13 12:30N 34°39' E 135°24'3 6.2
2018-May-13 12:00N 34°37' E 135°21'611.3
2018-May-13 11:30N 34°33' E 135°16'815.2
2018-May-13 11:00N 34°27' E 135°10'816.7
2018-May-13 10:30N 34°21' E 135°03'815.7
2018-May-13 10:01N 34°14' E 134°59'611.6
2018-May-13 09:30N 34°08' E 134°59'3 6.1
2018-May-13 09:00N 34°05' E 134°60'917.6
2018-May-13 08:30N 33°56' E 135°00'918.8
2018-May-13 08:00N 33°47' E 135°03'1019.4
2018-May-13 07:30N 33°40' E 135°11'1019.8
2018-May-13 06:59N 33°32' E 135°18'13018.7
2018-May-13 00:01N 34°02' E 137°51'121.9
2018-May-12 23:58N 34°02' E 137°52'1020.7
2018-May-12 23:27N 34°08' E 138°03'919.8
2018-May-12 22:59N 34°12' E 138°13'1017.8
2018-May-12 22:27N 34°17' E 138°23'917.9
2018-May-12 21:58N 34°20' E 138°33'917.8
2018-May-12 21:28N 34°24' E 138°42'917.5
2018-May-12 20:58N 34°28' E 138°52'816.2
2018-May-12 20:30N 34°30' E 139°01'816.2
2018-May-12 20:00N 34°33' E 139°10'815.4
2018-May-12 19:30N 34°36' E 139°19'814.5
2018-May-12 18:58N 34°38' E 139°28'715.0
2018-May-12 18:30N 34°44' E 139°32'817.0
2018-May-12 18:00N 34°52' E 139°36'816.2
2018-May-12 17:31N 34°59' E 139°39'  

Dump ship's entire track history